Time;durP1;ratioP1;P1;durP2;ratioP2;P2;SDS_P1;SDS_P2;PMS_P1;PMS_P2;Temp;Humidity;BMP_temperature;BMP_pressure;BME280_temperature;BME280_humidity;BME280_pressure;Samples;Min_cycle;Max_cycle;Signal;HPM_P1;HPM_P2
2021/12/14 00:01:36;;;;;;;0.57;0.57;;;1.50;99.90;;;;;;5018151;28;20735;-79
2021/12/14 00:04:10;;;;;;;0.60;0.60;;;1.50;99.90;;;;;;5005312;28;20221;-79
2021/12/14 00:06:38;;;;;;;0.70;0.70;;;1.60;99.90;;;;;;5024545;28;20555;-79
2021/12/14 00:09:06;;;;;;;0.55;0.55;;;1.60;99.90;;;;;;5024614;28;20218;-79
2021/12/14 00:17:23;;;;;;;0.50;0.50;;;1.50;99.90;;;;;;5001112;28;20203;-80
2021/12/14 00:19:51;;;;;;;0.55;0.55;;;1.50;99.90;;;;;;5012212;28;20198;-79
2021/12/14 00:25:05;;;;;;;0.60;0.60;;;1.50;99.90;;;;;;5011794;28;20222;-80
2021/12/14 00:27:32;;;;;;;0.60;0.60;;;1.50;99.90;;;;;;5011252;28;20211;-80
2021/12/14 00:30:00;;;;;;;0.60;0.60;;;1.50;99.90;;;;;;5010128;28;20206;-80
2021/12/14 00:32:31;;;;;;;0.60;0.60;;;1.50;99.90;;;;;;5026810;28;20313;-80
2021/12/14 00:34:59;;;;;;;0.60;0.60;;;1.50;99.90;;;;;;4996857;28;20195;-81
2021/12/14 00:37:37;;;;;;;0.60;0.60;;;1.50;99.90;;;;;;5007842;28;20238;-80
2021/12/14 00:40:11;;;;;;;0.60;0.60;;;1.50;99.90;;;;;;4996319;28;20207;-80
2021/12/14 00:42:37;;;;;;;0.50;0.50;;;1.50;99.90;;;;;;5010572;28;20241;-80
2021/12/14 00:45:04;;;;;;;0.60;0.60;;;1.50;99.90;;;;;;5007023;28;20677;-80
2021/12/14 00:47:30;;;;;;;0.60;0.60;;;1.50;99.90;;;;;;5011150;28;20296;-79
2021/12/14 00:49:55;;;;;;;0.70;0.70;;;1.50;99.90;;;;;;5027750;28;20199;-80
2021/12/14 00:52:22;;;;;;;0.60;0.60;;;1.50;99.90;;;;;;5026283;28;20245;-80
2021/12/14 00:54:49;;;;;;;0.70;0.70;;;1.50;99.90;;;;;;5009914;28;20281;-80
2021/12/14 00:57:15;;;;;;;0.60;0.60;;;1.50;99.90;;;;;;5011293;28;20709;-79
2021/12/14 00:59:42;;;;;;;0.70;0.70;;;1.50;99.90;;;;;;5002933;28;20227;-81
2021/12/14 01:02:13;;;;;;;0.65;0.65;;;1.50;99.90;;;;;;5017122;28;20203;-80
2021/12/14 01:04:53;;;;;;;0.70;0.70;;;1.50;99.90;;;;;;5009751;28;20203;-80
2021/12/14 01:07:22;;;;;;;0.70;0.70;;;1.50;99.90;;;;;;5009508;28;20265;-80
2021/12/14 01:09:51;;;;;;;0.60;0.60;;;1.50;99.90;;;;;;5008623;28;20257;-80
2021/12/14 01:12:33;;;;;;;0.68;0.68;;;1.50;99.90;;;;;;5009615;28;20215;-80
2021/12/14 01:15:25;;;;;;;0.70;0.70;;;1.50;99.90;;;;;;5008516;28;20207;-80
2021/12/14 01:20:50;;;;;;;0.70;0.70;;;1.50;99.90;;;;;;4993566;28;20254;-80
2021/12/14 01:23:29;;;;;;;0.70;0.70;;;1.60;99.90;;;;;;5006411;28;20222;-80
2021/12/14 01:25:58;;;;;;;0.60;0.60;;;1.60;99.90;;;;;;4995294;28;20235;-80
2021/12/14 01:28:27;;;;;;;0.70;0.70;;;1.60;99.90;;;;;;5006753;28;20211;-80
2021/12/14 01:31:20;;;;;;;0.70;0.70;;;1.60;99.90;;;;;;5013521;28;20212;-80
2021/12/14 01:33:50;;;;;;;0.70;0.70;;;2.00;99.90;;;;;;5011766;28;20670;-80
2021/12/14 01:41:50;;;;;;;0.60;0.60;;;2.00;99.90;;;;;;4977993;28;20307;-80
2021/12/14 01:44:16;;;;;;;0.60;0.60;;;1.90;99.90;;;;;;4991867;28;20212;-80
2021/12/14 01:46:59;;;;;;;0.68;0.68;;;1.80;99.90;;;;;;4992702;28;20208;-80
2021/12/14 01:49:28;;;;;;;0.60;0.60;;;1.80;99.90;;;;;;4977321;28;20254;-80
2021/12/14 01:51:59;;;;;;;0.40;0.40;;;1.70;99.90;;;;;;4994939;28;20204;-79
2021/12/14 01:54:30;;;;;;;0.77;0.77;;;1.70;99.90;;;;;;5007156;28;20698;-78
2021/12/14 01:56:56;;;;;;;0.70;0.70;;;1.70;99.90;;;;;;4993954;28;20204;-79
2021/12/14 01:59:28;;;;;;;0.57;0.57;;;1.60;99.90;;;;;;5025005;28;20203;-79
2021/12/14 02:02:07;;;;;;;0.95;0.57;;;1.70;99.90;;;;;;5003061;28;20204;-80
2021/12/14 02:04:34;;;;;;;0.60;0.60;;;1.70;99.90;;;;;;4992958;28;20207;-79
2021/12/14 02:07:04;;;;;;;0.60;0.60;;;1.60;99.90;;;;;;4994044;28;20235;-80
2021/12/14 02:09:33;;;;;;;0.60;0.60;;;1.60;99.90;;;;;;4978558;28;20198;-80
2021/12/14 02:12:06;;;;;;;0.70;0.70;;;1.70;99.90;;;;;;4992391;28;20281;-79
2021/12/14 02:14:32;;;;;;;0.60;0.60;;;1.70;99.90;;;;;;5008112;28;20203;-79
2021/12/14 02:17:02;;;;;;;0.65;0.65;;;1.90;99.90;;;;;;5008994;28;20198;-80
2021/12/14 02:19:29;;;;;;;0.60;0.60;;;1.80;99.90;;;;;;5007549;28;20676;-79
2021/12/14 02:21:57;;;;;;;0.60;0.60;;;1.80;99.90;;;;;;4993831;28;20678;-79
2021/12/14 02:24:25;;;;;;;0.70;0.70;;;1.60;99.90;;;;;;5006131;28;20237;-79
2021/12/14 02:26:53;;;;;;;0.60;0.60;;;1.70;99.90;;;;;;5006825;28;20805;-79
2021/12/14 02:29:27;;;;;;;0.65;0.65;;;1.60;99.90;;;;;;5009286;28;20203;-79
2021/12/14 02:32:00;;;;;;;0.57;0.57;;;1.60;99.90;;;;;;5024308;28;20225;-79
2021/12/14 02:34:26;;;;;;;0.50;0.50;;;1.60;99.90;;;;;;5009245;28;20688;-79
2021/12/14 02:36:52;;;;;;;0.60;0.60;;;1.90;99.90;;;;;;5008061;28;20211;-79
2021/12/14 02:39:25;;;;;;;0.47;0.47;;;1.80;99.90;;;;;;5009087;28;20199;-79
2021/12/14 02:41:58;;;;;;;0.60;0.60;;;1.60;99.90;;;;;;4996232;28;20206;-79
2021/12/14 02:44:24;;;;;;;0.60;0.60;;;1.60;99.90;;;;;;5002910;28;20301;-79
2021/12/14 02:46:55;;;;;;;0.50;0.50;;;1.50;99.90;;;;;;4997651;28;20222;-79
2021/12/14 02:49:24;;;;;;;0.60;0.60;;;1.60;99.90;;;;;;5003607;28;20207;-79
2021/12/14 02:51:57;;;;;;;0.50;0.50;;;1.60;99.90;;;;;;4996292;28;20574;-79
2021/12/14 02:54:31;;;;;;;0.60;0.60;;;1.50;99.90;;;;;;5005159;28;20769;-79
2021/12/14 02:57:02;;;;;;;0.68;0.68;;;1.40;99.90;;;;;;5011634;28;20293;-79
2021/12/14 02:59:31;;;;;;;1.00;0.98;;;1.30;99.90;;;;;;5004648;28;20298;-80
2021/12/14 03:02:04;;;;;;;0.60;0.60;;;1.30;99.90;;;;;;4989245;28;20582;-79
2021/12/14 03:04:32;;;;;;;0.50;0.50;;;1.30;99.90;;;;;;4988070;28;20208;-80
2021/12/14 03:07:01;;;;;;;0.70;0.70;;;1.20;99.90;;;;;;4992152;28;20262;-79
2021/12/14 03:09:41;;;;;;;0.60;0.60;;;1.20;99.90;;;;;;5002894;28;20265;-79
2021/12/14 03:12:15;;;;;;;0.70;0.70;;;1.20;99.90;;;;;;5010314;28;20295;-79
2021/12/14 03:14:51;;;;;;;0.60;0.60;;;1.20;99.90;;;;;;5023700;28;20260;-78
2021/12/14 03:17:17;;;;;;;0.70;0.70;;;1.10;99.90;;;;;;5023108;28;20210;-78
2021/12/14 03:19:51;;;;;;;0.68;0.68;;;1.20;99.90;;;;;;4993941;28;20603;-78
2021/12/14 03:22:46;;;;;;;0.60;0.60;;;1.20;99.90;;;;;;4991381;28;20207;-78
2021/12/14 03:25:13;;;;;;;0.70;0.70;;;1.10;99.90;;;;;;5009104;28;20697;-79
2021/12/14 03:27:41;;;;;;;0.60;0.60;;;1.10;99.90;;;;;;5009803;28;20211;-79
2021/12/14 03:30:26;;;;;;;0.65;0.65;;;1.10;99.90;;;;;;4991450;28;20207;-79
2021/12/14 03:32:55;;;;;;;0.70;0.70;;;1.20;99.90;;;;;;5024163;28;20218;-79
2021/12/14 03:35:48;;;;;;;0.65;0.65;;;1.10;99.90;;;;;;5008881;28;20618;-79
2021/12/14 03:38:22;;;;;;;0.60;0.60;;;1.10;99.90;;;;;;4973901;28;20207;-79
2021/12/14 03:41:20;;;;;;;0.93;0.93;;;1.10;99.90;;;;;;4975060;28;20211;-79
2021/12/14 03:44:08;;;;;;;0.60;0.60;;;1.10;99.90;;;;;;4977496;28;20671;-79
2021/12/14 03:46:43;;;;;;;0.68;0.68;;;1.10;99.90;;;;;;4998158;28;20551;-79
2021/12/14 03:49:09;;;;;;;0.70;0.70;;;1.10;99.90;;;;;;5024678;28;20718;-78
2021/12/14 03:51:35;;;;;;;0.73;0.73;;;1.00;99.90;;;;;;5024561;28;20214;-79
2021/12/14 03:54:02;;;;;;;0.70;0.70;;;1.10;99.90;;;;;;5011669;28;20271;-79
2021/12/14 03:56:28;;;;;;;0.60;0.60;;;1.10;99.90;;;;;;4998990;28;20207;-79
2021/12/14 03:58:54;;;;;;;0.70;0.70;;;1.10;99.90;;;;;;5027394;28;20698;-79
2021/12/14 04:01:38;;;;;;;0.50;0.50;;;1.10;99.90;;;;;;5002375;28;20227;-78
2021/12/14 04:04:15;;;;;;;0.70;0.70;;;1.00;99.90;;;;;;5000738;28;20198;-78
2021/12/14 04:06:42;;;;;;;0.70;0.70;;;1.00;99.90;;;;;;5010583;28;20676;-79
2021/12/14 04:09:11;;;;;;;0.60;0.60;;;1.00;99.90;;;;;;5024479;28;20254;-78
2021/12/14 04:11:37;;;;;;;0.60;0.60;;;1.00;99.90;;;;;;4995677;28;20306;-78
2021/12/14 04:14:04;;;;;;;0.65;0.65;;;1.00;99.90;;;;;;4994673;28;20227;-78
2021/12/14 04:16:30;;;;;;;0.70;0.70;;;1.00;99.90;;;;;;4994449;28;20539;-79
2021/12/14 04:19:03;;;;;;;0.70;0.70;;;1.00;99.90;;;;;;5010699;28;20196;-78
2021/12/14 04:21:29;;;;;;;0.60;0.60;;;1.00;99.90;;;;;;5012723;28;20567;-79
2021/12/14 04:23:55;;;;;;;0.60;0.60;;;1.00;99.90;;;;;;5008075;28;20262;-78
2021/12/14 04:26:21;;;;;;;0.68;0.68;;;1.00;99.90;;;;;;4993960;28;20687;-79
2021/12/14 04:28:56;;;;;;;0.63;0.63;;;1.00;99.90;;;;;;5009294;28;20196;-80
2021/12/14 04:31:22;;;;;;;0.70;0.70;;;1.00;99.90;;;;;;4993963;28;20690;-79
2021/12/14 04:33:51;;;;;;;0.60;0.60;;;1.00;99.90;;;;;;5026768;28;20563;-79
2021/12/14 04:36:21;;;;;;;0.80;0.80;;;1.00;99.90;;;;;;4994648;28;20659;-79
2021/12/14 04:52:52;;;;;;;0.63;0.63;;;0.90;99.90;;;;;;5001814;28;20207;-79
2021/12/14 04:55:18;;;;;;;0.77;0.77;;;0.90;99.90;;;;;;4993795;28;20725;-80
2021/12/14 04:57:47;;;;;;;0.70;0.70;;;0.90;99.90;;;;;;5004603;28;20658;-79
2021/12/14 05:00:30;;;;;;;1.38;1.27;;;0.80;99.90;;;;;;4993816;28;20595;-79
2021/12/14 05:02:57;;;;;;;0.68;0.68;;;0.80;99.90;;;;;;4993085;28;20212;-80
2021/12/14 05:05:29;;;;;;;0.60;0.60;;;0.80;99.90;;;;;;4994025;28;20211;-80
2021/12/14 05:11:07;;;;;;;0.73;0.73;;;0.70;99.90;;;;;;4994120;28;20226;-79
2021/12/14 05:13:46;;;;;;;0.70;0.70;;;0.70;99.90;;;;;;5026685;28;20318;-80
2021/12/14 05:16:20;;;;;;;0.65;0.65;;;0.60;99.90;;;;;;4986767;28;20565;-79
2021/12/14 05:18:49;;;;;;;0.60;0.60;;;0.60;99.90;;;;;;4977482;28;20206;-79
2021/12/14 05:21:26;;;;;;;0.60;0.60;;;0.50;99.90;;;;;;4994484;28;20769;-79
2021/12/14 05:23:53;;;;;;;0.60;0.60;;;0.50;99.90;;;;;;4979769;28;20227;-78
2021/12/14 05:26:19;;;;;;;0.70;0.70;;;0.50;99.90;;;;;;5024940;28;20633;-80
2021/12/14 05:28:46;;;;;;;0.60;0.60;;;0.50;99.90;;;;;;4992132;28;20299;-79
2021/12/14 05:31:12;;;;;;;0.70;0.70;;;0.40;99.90;;;;;;4994821;28;20211;-79
2021/12/14 05:33:39;;;;;;;0.60;0.60;;;0.40;99.90;;;;;;5010715;28;20724;-79
2021/12/14 05:36:09;;;;;;;0.70;0.70;;;0.40;99.90;;;;;;5011098;28;20241;-79
2021/12/14 05:39:05;;;;;;;0.60;0.60;;;0.40;99.90;;;;;;5007663;28;20203;-79
2021/12/14 05:44:21;;;;;;;0.70;0.70;;;0.50;99.90;;;;;;4977543;28;20208;-79
2021/12/14 05:46:58;;;;;;;0.60;0.60;;;0.60;99.90;;;;;;4977494;28;20656;-79
2021/12/14 05:49:27;;;;;;;0.80;0.80;;;0.50;99.90;;;;;;4975060;28;20200;-79
2021/12/14 05:51:55;;;;;;;0.90;0.90;;;0.50;99.90;;;;;;4989207;28;20311;-79
2021/12/14 05:54:30;;;;;;;0.70;0.70;;;0.50;99.90;;;;;;5003682;28;20188;-80
2021/12/14 05:56:58;;;;;;;0.60;0.60;;;0.40;99.90;;;;;;5024758;28;20735;-79
2021/12/14 05:59:28;;;;;;;0.60;0.60;;;0.40;99.90;;;;;;5008809;28;20203;-79
2021/12/14 06:01:56;;;;;;;0.60;0.60;;;0.40;99.90;;;;;;5001781;28;20204;-78
2021/12/14 06:04:26;;;;;;;0.65;0.65;;;0.30;99.90;;;;;;5009592;28;20234;-80
2021/12/14 06:06:54;;;;;;;0.82;0.82;;;0.20;99.90;;;;;;5010419;28;20202;-80
2021/12/14 06:09:24;;;;;;;0.60;0.60;;;0.10;99.90;;;;;;5008284;28;20217;-80
2021/12/14 06:12:03;;;;;;;0.70;0.70;;;0.10;99.90;;;;;;5010932;28;20689;-81
2021/12/14 06:14:30;;;;;;;0.70;0.70;;;0.00;99.90;;;;;;5008364;28;20195;-80
2021/12/14 06:17:03;;;;;;;0.80;0.80;;;-0.10;99.90;;;;;;5024684;28;20685;-81
2021/12/14 06:19:33;;;;;;;0.60;0.60;;;-0.20;99.90;;;;;;5009363;28;20668;-80
2021/12/14 06:22:04;;;;;;;0.70;0.70;;;-0.20;99.90;;;;;;5024633;28;20207;-80
2021/12/14 06:24:32;;;;;;;0.70;0.70;;;-0.20;99.90;;;;;;5006687;28;20237;-79
2021/12/14 06:27:00;;;;;;;0.80;0.80;;;-0.20;99.90;;;;;;5009682;28;20203;-79
2021/12/14 06:29:28;;;;;;;0.80;0.80;;;-0.30;99.90;;;;;;5009300;28;20207;-80
2021/12/14 06:31:55;;;;;;;0.52;0.52;;;-0.30;99.90;;;;;;5024382;28;20245;-80
2021/12/14 06:34:27;;;;;;;0.70;0.70;;;-0.30;99.90;;;;;;5009200;28;20207;-80
2021/12/14 06:37:04;;;;;;;0.70;0.70;;;-0.40;99.90;;;;;;5024602;28;20233;-80
2021/12/14 06:40:18;;;;;;;0.73;0.73;;;-0.50;99.90;;;;;;4998789;28;20199;-82
2021/12/14 06:42:54;;;;;;;0.60;0.60;;;-0.50;99.90;;;;;;5006603;28;20234;-79
2021/12/14 06:45:28;;;;;;;0.60;0.60;;;-0.50;99.90;;;;;;5006267;28;20296;-78
2021/12/14 06:48:03;;;;;;;0.60;0.60;;;-0.50;99.90;;;;;;5024404;28;20246;-79
2021/12/14 06:50:40;;;;;;;0.60;0.60;;;-0.50;99.90;;;;;;5019604;28;20717;-78
2021/12/14 06:53:16;;;;;;;0.70;0.70;;;-0.50;99.90;;;;;;5008523;28;20216;-80
2021/12/14 06:55:44;;;;;;;0.70;0.70;;;-0.50;99.90;;;;;;5007070;28;20222;-82
2021/12/14 06:58:16;;;;;;;0.70;0.70;;;-0.60;99.90;;;;;;5024640;28;20223;-80
2021/12/14 07:01:09;;;;;;;0.63;0.63;;;-0.60;99.90;;;;;;5008598;28;20257;-81
2021/12/14 07:04:06;;;;;;;0.70;0.70;;;-0.60;99.90;;;;;;4980693;28;20211;-79
2021/12/14 07:06:43;;;;;;;0.70;0.70;;;-0.70;99.90;;;;;;4976354;28;20709;-78
2021/12/14 07:09:19;;;;;;;0.63;0.63;;;-0.70;99.90;;;;;;5022259;28;20734;-79
2021/12/14 07:11:48;;;;;;;0.80;0.80;;;-0.70;99.90;;;;;;4992592;28;20211;-78
2021/12/14 07:14:32;;;;;;;0.70;0.70;;;-0.80;99.90;;;;;;5008039;28;20200;-81
2021/12/14 07:17:10;;;;;;;0.80;0.80;;;-0.80;99.90;;;;;;4992010;28;20226;-81
2021/12/14 07:19:53;;;;;;;0.60;0.60;;;-0.80;99.90;;;;;;5007296;28;20641;-80
2021/12/14 07:22:32;;;;;;;0.60;0.60;;;-0.80;99.90;;;;;;5023743;28;20198;-79
2021/12/14 07:25:21;;;;;;;0.80;0.80;;;-0.80;99.90;;;;;;5008720;28;20409;-79
2021/12/14 07:28:05;;;;;;;0.70;0.70;;;-0.80;99.90;;;;;;5006543;28;20218;-80
2021/12/14 07:30:43;;;;;;;0.70;0.70;;;-0.90;99.90;;;;;;5024889;28;20199;-80
2021/12/14 07:33:17;;;;;;;0.70;0.70;;;-0.90;99.90;;;;;;5023589;28;20268;-79
2021/12/14 07:36:02;;;;;;;0.75;0.75;;;-1.00;99.90;;;;;;5008351;28;20244;-80
2021/12/14 07:38:33;;;;;;;0.70;0.70;;;-1.10;99.90;;;;;;5007058;28;20237;-79
2021/12/14 07:41:33;;;;;;;0.70;0.70;;;-1.10;99.90;;;;;;5023436;28;20717;-79
2021/12/14 07:44:15;;;;;;;0.80;0.80;;;-1.00;99.90;;;;;;5007375;28;20238;-80
2021/12/14 07:47:03;;;;;;;0.70;0.70;;;-1.00;99.90;;;;;;5003247;28;20651;-79
2021/12/14 07:49:34;;;;;;;0.85;0.85;;;-1.00;99.90;;;;;;5005391;28;20700;-78
2021/12/14 07:52:10;;;;;;;0.63;0.63;;;-1.00;99.90;;;;;;5006983;28;20637;-79
2021/12/14 07:54:38;;;;;;;0.80;0.80;;;-1.00;99.90;;;;;;4992067;28;20200;-80
2021/12/14 07:57:10;;;;;;;0.60;0.60;;;-1.00;99.90;;;;;;5008685;28;20209;-79
2021/12/14 07:59:46;;;;;;;0.63;0.63;;;-1.00;99.90;;;;;;5006830;28;20737;-81
2021/12/14 08:02:18;;;;;;;0.60;0.60;;;-1.00;99.90;;;;;;4995680;28;20608;-78
2021/12/14 08:05:15;;;;;;;0.70;0.70;;;-1.10;99.90;;;;;;5006661;28;20231;-78
2021/12/14 08:08:15;;;;;;;0.75;0.75;;;-1.10;99.90;;;;;;4992466;28;20675;-78
2021/12/14 08:11:17;;;;;;;0.70;0.70;;;-1.20;99.90;;;;;;4977750;28;20295;-78
2021/12/14 08:13:45;;;;;;;0.70;0.70;;;-1.30;99.90;;;;;;5006774;28;20635;-77
2021/12/14 08:16:11;;;;;;;0.70;0.70;;;-1.30;99.90;;;;;;5008080;28;20195;-77
2021/12/14 08:18:38;;;;;;;0.70;0.70;;;-1.30;99.90;;;;;;5003185;28;20206;-79
2021/12/14 08:21:11;;;;;;;0.70;0.70;;;-1.30;99.90;;;;;;4995711;28;20202;-80
2021/12/14 08:23:38;;;;;;;0.75;0.75;;;-1.30;99.90;;;;;;5007720;28;20259;-80
2021/12/14 08:26:07;;;;;;;0.63;0.63;;;-1.30;99.90;;;;;;5008069;28;20203;-80
2021/12/14 08:28:45;;;;;;;0.70;0.70;;;-1.30;99.90;;;;;;5023195;28;20204;-80
2021/12/14 08:31:10;;;;;;;0.77;0.77;;;-1.30;99.90;;;;;;5023276;28;20196;-80
2021/12/14 08:33:37;;;;;;;0.60;0.60;;;-1.30;99.90;;;;;;5022989;28;20207;-78
2021/12/14 08:36:05;;;;;;;0.70;0.70;;;-1.40;99.90;;;;;;5006515;28;20388;-78
2021/12/14 08:38:32;;;;;;;0.70;0.70;;;-1.40;99.90;;;;;;5023731;28;20561;-78
2021/12/14 08:41:10;;;;;;;0.70;0.70;;;-1.50;99.90;;;;;;5010630;28;20195;-78
2021/12/14 08:43:44;;;;;;;0.65;0.65;;;-1.50;99.90;;;;;;4993860;28;20207;-78
2021/12/14 08:46:13;;;;;;;0.80;0.80;;;-1.50;99.90;;;;;;4992653;28;20215;-78
2021/12/14 08:48:49;;;;;;;0.70;0.70;;;-1.50;99.90;;;;;;4993271;28;20212;-78
2021/12/14 08:51:22;;;;;;;0.80;0.80;;;-1.60;99.90;;;;;;5011149;28;20313;-78
2021/12/14 08:54:22;;;;;;;0.60;0.60;;;-1.70;99.90;;;;;;5012547;28;20207;-78
2021/12/14 08:56:59;;;;;;;0.82;0.82;;;-1.80;99.90;;;;;;4973659;28;20214;-77
2021/12/14 08:59:26;;;;;;;0.60;0.60;;;-1.80;99.90;;;;;;5025119;28;20196;-77
2021/12/14 09:01:52;;;;;;;0.60;0.60;;;-1.70;99.90;;;;;;5005591;28;20237;-77
2021/12/14 09:04:29;;;;;;;0.80;0.80;;;-1.70;99.90;;;;;;5008491;28;20207;-79
2021/12/14 09:07:00;;;;;;;0.65;0.65;;;-1.60;99.90;;;;;;5008365;28;20222;-78
2021/12/14 09:09:26;;;;;;;0.65;0.65;;;-1.60;99.90;;;;;;5026679;28;20733;-78
2021/12/14 09:12:03;;;;;;;0.65;0.65;;;-1.50;99.90;;;;;;5010462;28;20212;-78
2021/12/14 09:14:29;;;;;;;0.70;0.70;;;-1.60;99.90;;;;;;4977107;28;20233;-78
2021/12/14 09:16:57;;;;;;;0.70;0.70;;;-1.60;99.90;;;;;;5009480;28;20195;-78
2021/12/14 09:19:39;;;;;;;0.82;0.82;;;-1.60;99.90;;;;;;5009638;28;20693;-78
2021/12/14 09:22:14;;;;;;;0.55;0.55;;;-1.60;99.90;;;;;;4992734;28;20692;-78
2021/12/14 09:24:41;;;;;;;0.70;0.70;;;-1.60;99.90;;;;;;4976171;28;20243;-78
2021/12/14 09:27:11;;;;;;;0.90;0.90;;;-1.60;99.90;;;;;;4993267;28;20812;-78
2021/12/14 09:29:38;;;;;;;0.77;0.77;;;-1.50;99.90;;;;;;4991971;28;20214;-80
2021/12/14 09:32:08;;;;;;;0.70;0.70;;;-1.50;99.90;;;;;;4976061;28;20208;-77
2021/12/14 09:34:36;;;;;;;0.90;0.90;;;-1.50;99.90;;;;;;5026117;28;20681;-77
2021/12/14 09:37:04;;;;;;;0.80;0.80;;;-1.50;99.90;;;;;;5010895;28;20207;-77
2021/12/14 09:39:34;;;;;;;0.70;0.70;;;-1.50;99.90;;;;;;5004654;28;20187;-79
2021/12/14 09:42:16;;;;;;;0.70;0.70;;;-1.50;99.90;;;;;;4991104;28;20208;-79
2021/12/14 09:44:42;;;;;;;0.70;0.70;;;-1.50;99.90;;;;;;4992943;28;20215;-77
2021/12/14 09:47:16;;;;;;;0.68;0.68;;;-1.50;99.90;;;;;;4992507;28;20692;-77
2021/12/14 09:49:46;;;;;;;0.70;0.70;;;-1.50;99.90;;;;;;4993089;28;20247;-77
2021/12/14 09:52:21;;;;;;;0.80;0.80;;;-1.40;99.90;;;;;;4991341;28;20208;-79
2021/12/14 09:54:48;;;;;;;1.10;1.10;;;-1.50;99.90;;;;;;4992745;28;20671;-77
2021/12/14 09:57:23;;;;;;;0.77;0.77;;;-1.40;99.90;;;;;;4992528;28;20207;-78
2021/12/14 09:59:50;;;;;;;0.70;0.70;;;-1.40;99.90;;;;;;5008150;28;20725;-80
2021/12/14 10:02:24;;;;;;;0.60;0.60;;;-1.40;99.90;;;;;;4993792;28;20298;-79
2021/12/14 10:04:58;;;;;;;0.60;0.60;;;-1.40;99.90;;;;;;5009559;28;20199;-79
2021/12/14 10:07:25;;;;;;;0.70;0.70;;;-1.40;99.90;;;;;;4993650;28;20199;-79
2021/12/14 10:09:54;;;;;;;0.73;0.73;;;-1.50;99.90;;;;;;5007961;28;20726;-80
2021/12/14 10:14:51;;;;;;;0.68;0.68;;;-1.50;99.90;;;;;;5009852;28;20207;-80
2021/12/14 10:17:19;;;;;;;4.13;1.25;;;-1.50;99.90;;;;;;4992722;28;20208;-80
2021/12/14 10:19:46;;;;;;;1.27;1.17;;;-1.60;99.90;;;;;;5008631;28;20200;-79
2021/12/14 10:22:24;;;;;;;0.80;0.80;;;-1.50;99.90;;;;;;4992159;28;20810;-79
2021/12/14 10:25:04;;;;;;;0.70;0.70;;;-1.50;99.90;;;;;;4976490;28;20223;-80
2021/12/14 10:27:32;;;;;;;1.17;1.10;;;-1.50;99.90;;;;;;4994230;28;20571;-80
2021/12/14 10:29:59;;;;;;;0.63;0.63;;;-1.60;99.90;;;;;;5024576;28;20204;-80
2021/12/14 10:32:29;;;;;;;0.65;0.65;;;-1.60;99.90;;;;;;4993376;28;20744;-80
2021/12/14 10:35:01;;;;;;;0.70;0.70;;;-1.60;99.90;;;;;;5023346;28;20200;-81
2021/12/14 10:37:40;;;;;;;0.70;0.70;;;-1.70;99.90;;;;;;4994906;28;20199;-81
2021/12/14 10:43:12;;;;;;;0.75;0.75;;;-1.70;99.90;;;;;;4998671;28;20210;-80
2021/12/14 10:45:42;;;;;;;0.80;0.80;;;-1.70;99.90;;;;;;4982745;28;20230;-80
2021/12/14 10:48:08;;;;;;;0.70;0.70;;;-1.80;99.90;;;;;;4997687;28;20673;-80
2021/12/14 10:50:36;;;;;;;0.85;0.85;;;-1.80;99.90;;;;;;5001188;28;20203;-81
2021/12/14 10:53:05;;;;;;;0.82;0.82;;;-1.70;99.90;;;;;;4999336;28;20218;-79
2021/12/14 10:55:36;;;;;;;0.70;0.70;;;-1.70;99.90;;;;;;5002973;28;20575;-79
2021/12/14 10:58:05;;;;;;;1.00;1.00;;;-1.70;99.90;;;;;;4988688;28;20625;-79
2021/12/14 11:00:50;;;;;;;0.85;0.85;;;-1.60;99.90;;;;;;5019252;28;20206;-79
2021/12/14 11:03:21;;;;;;;0.70;0.70;;;-1.60;99.90;;;;;;5000060;28;20202;-78
2021/12/14 11:05:52;;;;;;;0.60;0.60;;;-1.50;99.90;;;;;;5000704;28;20261;-79
2021/12/14 11:11:11;;;;;;;0.70;0.70;;;-1.50;99.90;;;;;;5000934;28;20234;-79
2021/12/14 11:13:51;;;;;;;0.88;0.88;;;-1.40;99.90;;;;;;4991096;28;20257;-79
2021/12/14 11:16:32;;;;;;;0.80;0.80;;;-1.30;99.90;;;;;;5003476;28;20205;-79
2021/12/14 11:19:03;;;;;;;0.70;0.70;;;-1.40;99.90;;;;;;5006874;28;20199;-79
2021/12/14 11:21:29;;;;;;;0.80;0.80;;;-1.30;99.90;;;;;;5008320;28;20203;-79
2021/12/14 11:23:55;;;;;;;0.70;0.70;;;-1.30;99.90;;;;;;5006960;28;20669;-79
2021/12/14 11:26:35;;;;;;;0.70;0.70;;;-1.30;99.90;;;;;;5008313;28;20290;-79
2021/12/14 11:29:06;;;;;;;0.75;0.75;;;-1.30;99.90;;;;;;5007204;28;20210;-79
2021/12/14 11:31:47;;;;;;;0.70;0.70;;;-1.40;99.90;;;;;;5003897;28;20253;-80
2021/12/14 11:34:29;;;;;;;0.70;0.70;;;-1.40;99.90;;;;;;5002866;28;20268;-80
2021/12/14 11:37:03;;;;;;;0.70;0.70;;;-1.30;99.90;;;;;;4997566;28;20616;-80
2021/12/14 11:39:35;;;;;;;0.60;0.60;;;-1.20;99.90;;;;;;5002576;28;20202;-80
2021/12/14 11:42:04;;;;;;;0.75;0.75;;;-1.30;99.90;;;;;;4996632;28;20655;-80
2021/12/14 11:44:45;;;;;;;0.60;0.60;;;-1.30;99.90;;;;;;5002930;28;20211;-79
2021/12/14 11:49:57;;;;;;;0.80;0.80;;;-1.40;99.90;;;;;;4993121;28;20698;-80
2021/12/14 11:52:53;;;;;;;0.80;0.80;;;-1.50;99.90;;;;;;5002881;28;20214;-80
2021/12/14 11:55:21;;;;;;;0.60;0.60;;;-1.50;99.90;;;;;;5008869;28;20211;-80
2021/12/14 11:57:48;;;;;;;0.68;0.68;;;-1.60;99.90;;;;;;5023358;28;20597;-80
2021/12/14 12:00:21;;;;;;;0.77;0.77;;;-1.50;99.90;;;;;;5006822;28;20206;-79
2021/12/14 12:02:46;;;;;;;0.70;0.70;;;-1.50;99.90;;;;;;5008302;28;20262;-79
2021/12/14 12:05:21;;;;;;;0.73;0.73;;;-1.50;99.90;;;;;;4990910;28;20208;-79
2021/12/14 12:10:42;;;;;;;0.80;0.80;;;-1.50;99.90;;;;;;5009420;28;20707;-79
2021/12/14 12:13:08;;;;;;;0.70;0.70;;;-1.50;99.90;;;;;;5009018;28;20610;-79
2021/12/14 12:15:39;;;;;;;0.70;0.70;;;-1.50;99.90;;;;;;5012301;28;20214;-80
2021/12/14 12:18:05;;;;;;;0.80;0.80;;;-1.50;99.90;;;;;;5010494;28;20779;-79
2021/12/14 12:20:37;;;;;;;0.80;0.80;;;-1.50;99.90;;;;;;5026754;28;20234;-80
2021/12/14 12:23:09;;;;;;;0.60;0.60;;;-1.40;99.90;;;;;;5026918;28;20213;-78
2021/12/14 12:25:38;;;;;;;0.70;0.70;;;-1.40;99.90;;;;;;5011552;28;20222;-77
2021/12/14 12:28:07;;;;;;;0.63;0.63;;;-1.30;99.90;;;;;;5022747;28;20584;-79
2021/12/14 12:30:40;;;;;;;1.40;1.30;;;-1.30;99.90;;;;;;5005681;28;20669;-81
2021/12/14 12:33:14;;;;;;;0.60;0.60;;;-1.30;99.90;;;;;;5010232;28;20216;-79
2021/12/14 12:36:00;;;;;;;0.70;0.70;;;-1.40;99.90;;;;;;5010083;28;20233;-79
2021/12/14 12:38:41;;;;;;;0.70;0.70;;;-1.40;99.90;;;;;;5010206;28;20198;-79
2021/12/14 12:41:32;;;;;;;1.15;1.15;;;-1.40;99.90;;;;;;5026302;28;20202;-79
2021/12/14 12:44:13;;;;;;;0.70;0.70;;;-1.40;99.90;;;;;;5027075;28;20666;-79
2021/12/14 12:46:49;;;;;;;0.70;0.70;;;-1.40;99.90;;;;;;5026935;28;20222;-79
2021/12/14 12:49:38;;;;;;;0.70;0.70;;;-1.40;99.90;;;;;;5011776;28;20191;-79
2021/12/14 12:52:15;;;;;;;0.80;0.80;;;-1.50;99.90;;;;;;4995079;28;20215;-79
2021/12/14 12:55:04;;;;;;;0.80;0.80;;;-1.50;99.90;;;;;;5026218;28;20847;-79
2021/12/14 12:57:54;;;;;;;0.80;0.80;;;-1.60;99.90;;;;;;5010999;28;20603;-78
2021/12/14 13:00:43;;;;;;;0.80;0.80;;;-1.60;99.90;;;;;;5026117;28;20205;-78
2021/12/14 13:03:29;;;;;;;0.80;0.80;;;-1.70;99.90;;;;;;5018504;28;20728;-78
2021/12/14 13:06:02;;;;;;;0.77;0.77;;;-1.70;99.90;;;;;;5026070;28;20199;-78
2021/12/14 13:08:45;;;;;;;0.80;0.80;;;-1.80;99.90;;;;;;5010829;28;20662;-77
2021/12/14 13:11:24;;;;;;;0.80;0.80;;;-1.80;99.90;;;;;;5009561;28;20206;-80
2021/12/14 13:14:01;;;;;;;0.70;0.70;;;-1.90;99.90;;;;;;5025790;28;20215;-79
2021/12/14 13:16:37;;;;;;;1.13;1.10;;;-1.90;99.90;;;;;;5025711;28;20685;-79
2021/12/14 13:19:13;;;;;;;0.50;0.50;;;-1.90;99.90;;;;;;4998850;28;20573;-80
2021/12/14 13:21:46;;;;;;;0.73;0.73;;;-1.80;99.90;;;;;;5005259;28;20780;-80
2021/12/14 13:24:28;;;;;;;0.80;0.80;;;-1.90;99.90;;;;;;5021735;28;20227;-80
2021/12/14 13:27:03;;;;;;;0.80;0.80;;;-1.80;99.90;;;;;;5006225;28;20238;-80
2021/12/14 13:29:34;;;;;;;0.60;0.60;;;-1.90;99.90;;;;;;5025544;28;20257;-82
2021/12/14 13:32:09;;;;;;;0.70;0.70;;;-1.90;99.90;;;;;;5009193;28;20211;-80
2021/12/14 13:34:40;;;;;;;0.80;0.80;;;-1.90;99.90;;;;;;5010213;28;20255;-78
2021/12/14 13:37:08;;;;;;;1.20;1.15;;;-2.00;99.90;;;;;;5009008;28;20265;-78
2021/12/14 13:39:36;;;;;;;0.70;0.70;;;-2.10;99.90;;;;;;5025285;28;20213;-78
2021/12/14 13:42:16;;;;;;;0.80;0.80;;;-2.10;99.90;;;;;;5008884;28;20677;-79
2021/12/14 13:44:50;;;;;;;0.63;0.63;;;-2.00;99.90;;;;;;5007651;28;20725;-79
2021/12/14 13:47:23;;;;;;;0.90;0.90;;;-2.10;99.90;;;;;;5010232;28;20287;-80
2021/12/14 13:49:49;;;;;;;0.73;0.73;;;-2.20;99.90;;;;;;5008981;28;20214;-78
2021/12/14 13:52:18;;;;;;;0.70;0.70;;;-2.20;99.90;;;;;;5009976;28;20693;-79
2021/12/14 13:55:11;;;;;;;7.30;2.50;;;-2.10;99.90;;;;;;5025221;28;20666;-82
2021/12/14 13:57:41;;;;;;;0.80;0.80;;;-2.10;99.90;;;;;;5025017;28;20604;-79
2021/12/14 14:00:11;;;;;;;0.80;0.80;;;-2.00;99.90;;;;;;5008621;28;20567;-77
2021/12/14 14:02:37;;;;;;;0.80;0.80;;;-2.00;99.90;;;;;;5024778;28;20210;-79
2021/12/14 14:05:05;;;;;;;0.70;0.70;;;-2.00;99.90;;;;;;5025117;28;20222;-79
2021/12/14 14:07:31;;;;;;;0.70;0.70;;;-2.00;99.90;;;;;;5009588;28;20211;-79
2021/12/14 14:09:57;;;;;;;0.70;0.70;;;-2.10;99.90;;;;;;5008689;28;20216;-79
2021/12/14 14:12:23;;;;;;;0.80;0.80;;;-2.10;99.90;;;;;;5007013;28;20218;-80